Terminal Aerodrome Forecast
Issued by NWS

Home | Current Version | Previous Version | Text Only | Print | Product List | Glossary On
Versions: 1 2 3 4 5 6 7 8 9 10 11 12 13 14 15
000
FTUS43 KFGF 211138
TAFDVL
TAF
KDVL 211138Z 2112/2212 22004KT P6SM VCSH OVC080
     FM211400 22007KT P6SM SCT090
     FM212300 33013KT P6SM FEW200=

USA.gov is the U.S. government's official web portal to all federal, state and local government web resources and services.